This is the latest recevied weather packets stored in our database for station/object KC9DRE. If no packets are shown the sender has not sent any weather packets the latest 10 day(s).
| Time | Temp. | Humidity | Pressure | Rain* | Wind** | Luminosity | Snow |
|---|---|---|---|---|---|---|---|
| 1787677754 | 27.22° C | 53% | 1020 hPa | 0 mm | - | 816 W/m² | - |
| 1787677449 | 27.78° C | 50% | 1020.5 hPa | 0 mm | - | 801 W/m² | - |
| 1787677148 | 27.78° C | 48% | 1020.6 hPa | 0 mm | - | 793 W/m² | - |
| 1787676843 | 27.78° C | 51% | 1020.5 hPa | 0 mm | - | 785 W/m² | - |
| 1787676538 | 28.33° C | 46% | 1020.7 hPa | 0 mm | - | 776 W/m² | - |
| 1787676235 | 27.22° C | 56% | 1020.7 hPa | 0 mm | - | 787 W/m² | - |
| 1787675935 | 26.67° C | 50% | 1020.7 hPa | 0 mm | - | 795 W/m² | - |
| 1787675631 | 27.22° C | 47% | 1020.8 hPa | 0 mm | - | 792 W/m² | - |
| 1787675330 | 27.22° C | 52% | 1020.8 hPa | 0 mm | - | 780 W/m² | - |
| 1787674725 | 27.22° C | 50% | 1020.7 hPa | 0 mm | - | 768 W/m² | - |
| 1787674421 | 27.22° C | 51% | 1020.8 hPa | 0 mm | - | 751 W/m² | - |
| 1787674121 | 26.11° C | 52% | 1021 hPa | 0 mm | - | 744 W/m² | - |
| 1787673816 | 26.11° C | 55% | 1021.1 hPa | 0 mm | - | 740 W/m² | - |
| 1787673511 | 26.67° C | 50% | 1021.2 hPa | 0 mm | - | 729 W/m² | - |
| 1787673211 | 26.67° C | 50% | 1021.2 hPa | 0 mm | - | 714 W/m² | - |
| 1787672910 | 26.67° C | 52% | 1021.2 hPa | 0 mm | - | 710 W/m² | - |
| 1787672607 | 26.67° C | 52% | 1020.9 hPa | 0 mm | - | 697 W/m² | - |
| 1787672305 | 26.11° C | 56% | 1021 hPa | 0 mm | - | 684 W/m² | - |
| 1787672000 | 26.11° C | 55% | 1021 hPa | 0 mm | - | 672 W/m² | - |
| 1787671696 | 26.67° C | 51% | 1021 hPa | 0 mm | - | 660 W/m² | - |
| 1787671395 | 26.11° C | 53% | 1020.9 hPa | 0 mm | - | 648 W/m² | - |
| 1787671091 | 26.67° C | 54% | 1021 hPa | 0 mm | - | 632 W/m² | - |
| 1787670787 | 25.56° C | 59% | 1020.9 hPa | 0 mm | - | 620 W/m² | - |
| 1787670486 | 25° C | 58% | 1021.1 hPa | 0 mm | - | 609 W/m² | - |
| 1787670180 | 25.56° C | 54% | 1021.1 hPa | 0 mm | - | 587 W/m² | - |
* Rain latest hour (hover to see other rain measurements)
** Current wind speed in m/s (hover to see current wind gust speed)